createdAt,value
2018-11-07T00:00:40.322Z,6.80
2018-11-07T00:03:09.223Z,6.80
2018-11-07T00:05:38.231Z,6.70
2018-11-07T00:08:07.237Z,6.70
2018-11-07T00:10:36.163Z,6.70
2018-11-07T00:13:05.365Z,6.60
2018-11-07T00:15:34.430Z,6.60
2018-11-07T00:18:03.321Z,6.80
2018-11-07T00:20:32.235Z,6.80
2018-11-07T00:23:01.138Z,6.80
2018-11-07T00:25:30.275Z,6.90
2018-11-07T00:27:59.266Z,6.70
2018-11-07T00:30:28.187Z,6.70
2018-11-07T00:32:57.123Z,6.70
2018-11-07T00:35:26.050Z,6.60
2018-11-07T00:37:55.026Z,6.70
2018-11-07T00:40:23.954Z,6.50
2018-11-07T00:42:52.850Z,6.50
2018-11-07T00:45:21.842Z,6.40
2018-11-07T00:47:50.810Z,6.40
2018-11-07T00:50:19.997Z,6.50
2018-11-07T00:52:48.903Z,6.50
2018-11-07T00:55:17.888Z,6.50
2018-11-07T00:57:46.799Z,6.40
2018-11-07T01:00:17.238Z,6.40
2018-11-07T01:02:47.087Z,6.50
2018-11-07T01:05:16.206Z,6.40
2018-11-07T01:07:46.228Z,6.30
2018-11-07T01:10:15.112Z,6.30
2018-11-07T01:12:44.229Z,6.30
2018-11-07T01:15:13.648Z,6.30
2018-11-07T01:17:42.593Z,6.30
2018-11-07T01:20:13.092Z,6.20
2018-11-07T01:22:42.015Z,6.10
2018-11-07T01:25:10.920Z,6.10
2018-11-07T01:27:39.889Z,6.00
2018-11-07T01:30:10.850Z,6.00
2018-11-07T01:32:39.871Z,6.00
2018-11-07T01:35:09.066Z,6.10
2018-11-07T01:37:38.195Z,6.10
2018-11-07T01:40:11.110Z,6.10
2018-11-07T01:42:40.049Z,6.20
2018-11-07T01:45:10.020Z,6.00
2018-11-07T01:47:38.910Z,6.00
2018-11-07T01:50:09.574Z,6.00
2018-11-07T01:52:38.514Z,5.90
2018-11-07T01:55:08.010Z,5.90
2018-11-07T01:57:37.097Z,5.90
2018-11-07T02:00:08.445Z,5.80
2018-11-07T02:02:37.358Z,5.80
2018-11-07T02:05:06.901Z,5.80
2018-11-07T02:07:35.782Z,5.70
2018-11-07T02:10:05.988Z,5.60
2018-11-07T02:12:34.913Z,5.60
2018-11-07T02:15:03.843Z,5.60
2018-11-07T02:17:32.734Z,5.50
2018-11-07T02:20:01.756Z,5.60
2018-11-07T02:22:30.691Z,5.60
2018-11-07T02:24:59.595Z,5.70
2018-11-07T02:27:28.506Z,5.70
2018-11-07T02:29:57.426Z,5.70
2018-11-07T02:32:26.342Z,5.70
2018-11-07T02:34:55.840Z,5.60
2018-11-07T02:37:24.742Z,5.70
2018-11-07T02:39:53.670Z,5.70
2018-11-07T02:42:22.664Z,5.70
2018-11-07T02:44:51.558Z,5.70
2018-11-07T02:47:20.470Z,5.80
2018-11-07T02:49:49.358Z,5.70
2018-11-07T02:52:18.254Z,5.70
2018-11-07T02:54:47.155Z,5.70
2018-11-07T02:57:16.066Z,5.60
2018-11-07T02:59:44.938Z,5.60
2018-11-07T03:02:13.863Z,5.60
2018-11-07T03:04:42.750Z,5.60
2018-11-07T03:07:11.630Z,5.60
2018-11-07T03:09:40.606Z,5.60
2018-11-07T03:12:09.522Z,5.50
2018-11-07T03:14:38.411Z,5.50
2018-11-07T03:17:07.299Z,5.40
2018-11-07T03:19:36.247Z,5.40
2018-11-07T03:22:05.484Z,5.40
2018-11-07T03:24:34.366Z,5.40
2018-11-07T03:27:03.330Z,5.40
2018-11-07T03:29:32.365Z,5.30
2018-11-07T03:32:01.326Z,5.30
2018-11-07T03:34:30.210Z,5.30
2018-11-07T03:36:59.106Z,5.10
2018-11-07T03:39:28.065Z,5.10
2018-11-07T03:41:56.990Z,5.10
2018-11-07T03:44:25.903Z,5.10
2018-11-07T03:46:54.824Z,5.10
2018-11-07T03:49:23.748Z,5.10
2018-11-07T03:51:52.683Z,5.10
2018-11-07T03:54:22.478Z,5.00
2018-11-07T03:56:53.442Z,5.00
2018-11-07T03:59:26.120Z,4.90
2018-11-07T04:01:55.912Z,4.90
2018-11-07T04:04:24.793Z,4.90
2018-11-07T04:06:53.713Z,4.90
2018-11-07T04:09:22.711Z,4.90
2018-11-07T04:11:51.646Z,5.00
2018-11-07T04:14:20.530Z,5.10
2018-11-07T04:16:53.525Z,5.10
2018-11-07T04:19:24.344Z,5.00
2018-11-07T04:21:53.306Z,5.10
2018-11-07T04:24:22.282Z,5.10
2018-11-07T04:26:51.281Z,5.20
2018-11-07T04:29:20.160Z,5.30
2018-11-07T04:31:50.207Z,5.20
2018-11-07T04:34:20.256Z,5.10
2018-11-07T04:36:52.070Z,5.10
2018-11-07T04:39:21.978Z,5.10
2018-11-07T04:41:51.801Z,5.10
2018-11-07T04:44:20.745Z,5.00
2018-11-07T04:46:49.597Z,5.00
2018-11-07T04:49:18.510Z,4.90
2018-11-07T04:51:47.504Z,4.80
2018-11-07T04:54:17.214Z,4.70
2018-11-07T04:56:47.225Z,4.70
2018-11-07T04:59:16.761Z,4.70
2018-11-07T05:01:45.706Z,4.80
2018-11-07T05:04:15.231Z,4.90
2018-11-07T05:06:44.141Z,4.90
2018-11-07T05:09:13.299Z,4.90
2018-11-07T05:11:44.386Z,4.90
2018-11-07T05:14:14.242Z,4.90
2018-11-07T05:16:44.118Z,4.90
2018-11-07T05:19:13.953Z,4.90
2018-11-07T05:21:42.851Z,4.90
2018-11-07T05:24:11.766Z,4.80
2018-11-07T05:26:40.757Z,4.80
2018-11-07T05:29:09.670Z,4.70
2018-11-07T05:31:40.007Z,4.80
2018-11-07T05:34:10.739Z,4.80
2018-11-07T05:36:40.503Z,4.80
2018-11-07T05:39:10.095Z,4.80
2018-11-07T05:41:38.997Z,4.80
2018-11-07T05:44:08.192Z,4.80
2018-11-07T05:46:37.150Z,4.70
2018-11-07T05:49:07.175Z,4.60
2018-11-07T05:51:37.091Z,4.50
2018-11-07T05:54:06.810Z,4.50
2018-11-07T05:56:36.742Z,4.40
2018-11-07T05:59:06.095Z,4.40
2018-11-07T06:01:34.986Z,4.50
2018-11-07T06:04:08.143Z,4.50
2018-11-07T06:06:37.371Z,4.60
2018-11-07T06:09:07.122Z,4.60
2018-11-07T06:11:37.218Z,4.60
2018-11-07T06:14:07.241Z,4.50
2018-11-07T06:16:37.234Z,4.40
2018-11-07T06:19:06.174Z,4.30
2018-11-07T06:21:35.095Z,4.30
2018-11-07T06:24:04.070Z,4.20
2018-11-07T06:26:33.074Z,4.30
2018-11-07T06:29:02.814Z,4.40
2018-11-07T06:31:33.758Z,4.50
2018-11-07T06:34:05.717Z,4.70
2018-11-07T06:36:37.475Z,4.70
2018-11-07T06:39:08.978Z,4.90
2018-11-07T06:41:38.114Z,5.20
2018-11-07T06:44:07.819Z,5.30
2018-11-07T06:46:36.766Z,5.20
2018-11-07T06:49:05.786Z,5.10
2018-11-07T06:51:35.565Z,5.20
2018-11-07T06:54:04.670Z,5.20
2018-11-07T06:56:33.575Z,5.20
2018-11-07T06:59:02.528Z,5.10
2018-11-07T07:01:31.569Z,5.10
2018-11-07T07:04:00.460Z,5.10
2018-11-07T07:06:29.359Z,5.20
2018-11-07T07:08:58.279Z,5.20
2018-11-07T07:11:27.222Z,5.20
2018-11-07T07:13:56.268Z,5.10
2018-11-07T07:16:25.243Z,5.20
2018-11-07T07:18:54.195Z,5.30
2018-11-07T07:21:23.139Z,5.40
2018-11-07T07:23:52.031Z,5.50
2018-11-07T07:26:21.214Z,5.50
2018-11-07T07:28:50.122Z,5.70
2018-11-07T07:31:18.978Z,5.80
2018-11-07T07:33:47.930Z,5.80
2018-11-07T07:36:16.755Z,5.90
2018-11-07T07:38:46.459Z,5.90
2018-11-07T07:41:15.479Z,5.90
2018-11-07T07:43:44.382Z,5.80
2018-11-07T07:46:13.260Z,5.80
2018-11-07T07:48:42.155Z,5.70
2018-11-07T07:51:11.072Z,5.80
2018-11-07T07:53:39.997Z,5.80
2018-11-07T07:56:08.877Z,5.90
2018-11-07T07:58:37.790Z,5.90
2018-11-07T08:01:06.701Z,6.00
2018-11-07T08:03:35.599Z,6.10
2018-11-07T08:06:04.501Z,6.10
2018-11-07T08:08:33.392Z,6.10
2018-11-07T08:11:02.295Z,6.20
2018-11-07T08:13:31.283Z,6.30
2018-11-07T08:16:00.083Z,6.40
2018-11-07T08:18:28.989Z,6.40
2018-11-07T08:20:57.891Z,6.50
2018-11-07T08:23:26.823Z,6.50
2018-11-07T08:25:55.771Z,6.60
2018-11-07T08:28:24.663Z,6.70
2018-11-07T08:30:53.712Z,6.80
2018-11-07T08:33:22.576Z,7.00
2018-11-07T08:35:51.541Z,7.10
2018-11-07T08:38:20.519Z,7.20
2018-11-07T08:40:50.101Z,7.40
2018-11-07T08:43:18.990Z,7.40
2018-11-07T08:45:47.878Z,7.60
2018-11-07T08:48:16.825Z,7.70
2018-11-07T08:50:45.702Z,7.90
2018-11-07T08:53:14.743Z,8.00
2018-11-07T08:55:43.627Z,8.20
2018-11-07T08:58:12.541Z,8.30
2018-11-07T09:00:41.447Z,8.50
2018-11-07T09:03:10.336Z,8.50
2018-11-07T09:05:39.225Z,8.70
2018-11-07T09:08:08.142Z,8.90
2018-11-07T09:10:37.071Z,9.00
2018-11-07T09:13:05.970Z,9.10
2018-11-07T09:15:34.847Z,9.30
2018-11-07T09:18:03.818Z,9.30
2018-11-07T09:20:32.711Z,9.40
2018-11-07T09:23:01.741Z,9.50
2018-11-07T09:25:30.654Z,9.60
2018-11-07T09:27:59.621Z,9.80
2018-11-07T09:30:28.515Z,9.90
2018-11-07T09:32:57.438Z,9.90
2018-11-07T09:35:26.358Z,10.10
2018-11-07T09:37:55.300Z,10.30
2018-11-07T09:40:24.231Z,10.40
2018-11-07T09:42:53.729Z,10.50
2018-11-07T09:45:23.334Z,10.70
2018-11-07T09:47:52.318Z,10.90
2018-11-07T09:50:21.274Z,11.00
2018-11-07T09:52:50.182Z,11.00
2018-11-07T09:55:20.276Z,11.10
2018-11-07T09:57:49.218Z,11.20
2018-11-07T10:00:19.406Z,11.30
2018-11-07T10:02:48.394Z,11.50
2018-11-07T10:05:18.421Z,11.70
2018-11-07T10:07:47.337Z,11.90
2018-11-07T10:10:18.618Z,12.10
2018-11-07T10:12:47.635Z,12.20
2018-11-07T10:15:16.822Z,12.30
2018-11-07T10:17:45.741Z,12.50
2018-11-07T10:20:17.416Z,12.50
2018-11-07T10:22:46.943Z,12.60
2018-11-07T10:25:16.147Z,12.60
2018-11-07T10:27:45.477Z,12.70
2018-11-07T10:30:16.832Z,12.90
2018-11-07T10:32:46.852Z,12.90
2018-11-07T10:35:15.793Z,12.90
2018-11-07T10:37:44.818Z,12.80
2018-11-07T10:40:20.814Z,12.90
2018-11-07T10:42:49.790Z,13.20
2018-11-07T10:45:18.742Z,13.30
2018-11-07T10:47:48.411Z,13.40
2018-11-07T10:50:18.423Z,13.50
2018-11-07T10:52:47.861Z,13.60
2018-11-07T10:55:17.500Z,13.80
2018-11-07T10:57:46.679Z,14.00
2018-11-07T11:00:21.539Z,14.00
2018-11-07T11:03:57.283Z,14.10
2018-11-07T11:06:27.456Z,14.30
2018-11-07T11:08:56.831Z,14.60
2018-11-07T11:11:26.265Z,14.90
2018-11-07T11:13:55.927Z,14.90
2018-11-07T11:16:25.276Z,15.00
2018-11-07T11:18:54.879Z,15.00
2018-11-07T11:21:24.146Z,15.20
2018-11-07T11:23:54.145Z,15.30
2018-11-07T11:26:23.843Z,15.40
2018-11-07T11:28:54.440Z,15.40
2018-11-07T11:31:24.374Z,15.30
2018-11-07T11:33:53.872Z,15.50
2018-11-07T11:36:23.005Z,15.80
2018-11-07T11:38:52.379Z,16.10
2018-11-07T11:41:21.485Z,16.40
2018-11-07T11:43:50.481Z,16.10
2018-11-07T11:46:19.577Z,16.60
2018-11-07T11:48:48.555Z,16.60
2018-11-07T11:51:17.667Z,16.50
2018-11-07T11:53:46.804Z,16.70
2018-11-07T11:56:16.194Z,16.90
2018-11-07T11:58:45.548Z,16.90
2018-11-07T12:01:14.638Z,17.10
2018-11-07T12:03:43.830Z,17.40
2018-11-07T12:06:12.863Z,17.30
2018-11-07T12:08:41.963Z,17.30
2018-11-07T12:11:10.843Z,17.50
2018-11-07T12:13:39.895Z,17.70
2018-11-07T12:16:08.941Z,17.70
2018-11-07T12:18:37.946Z,17.90
2018-11-07T12:21:06.914Z,17.90
2018-11-07T12:23:35.789Z,17.90
2018-11-07T12:26:04.722Z,18.00
2018-11-07T12:28:33.633Z,18.10
2018-11-07T12:31:02.521Z,18.00
2018-11-07T12:33:31.574Z,18.10
2018-11-07T12:36:00.484Z,18.30
2018-11-07T12:38:29.434Z,18.00
2018-11-07T12:40:58.353Z,17.60
2018-11-07T12:43:27.288Z,17.90
2018-11-07T12:45:56.203Z,18.20
2018-11-07T12:48:25.271Z,17.90
2018-11-07T12:50:54.264Z,17.70
2018-11-07T12:53:23.203Z,17.80
2018-11-07T12:55:52.190Z,18.20
2018-11-07T12:58:21.314Z,18.10
2018-11-07T13:00:50.005Z,17.90
2018-11-07T13:03:18.911Z,17.90
2018-11-07T13:05:47.778Z,18.00
2018-11-07T13:08:16.838Z,17.80
2018-11-07T13:10:45.752Z,17.80
2018-11-07T13:13:14.770Z,17.70
2018-11-07T13:15:43.662Z,17.90
2018-11-07T13:18:12.575Z,17.70
2018-11-07T13:20:41.463Z,17.80
2018-11-07T13:23:10.378Z,17.70
2018-11-07T13:25:39.290Z,17.50
2018-11-07T13:28:08.283Z,17.60
2018-11-07T13:30:37.148Z,17.60
2018-11-07T13:33:06.153Z,17.10
2018-11-07T13:35:35.032Z,17.20
2018-11-07T13:38:04.029Z,17.30
2018-11-07T13:40:33.003Z,17.30
2018-11-07T13:43:01.928Z,17.30
2018-11-07T13:45:30.897Z,17.40
2018-11-07T13:47:59.765Z,17.30
2018-11-07T13:50:28.755Z,17.40
2018-11-07T13:52:59.781Z,17.40
2018-11-07T13:55:28.704Z,17.30
2018-11-07T13:57:57.654Z,17.00
2018-11-07T14:00:26.746Z,17.10
2018-11-07T14:02:55.658Z,17.10
2018-11-07T14:05:24.880Z,16.80
2018-11-07T14:07:53.816Z,16.60
2018-11-07T14:10:25.449Z,16.60
2018-11-07T14:12:54.891Z,16.10
2018-11-07T14:15:23.938Z,16.10
2018-11-07T14:17:53.009Z,16.10
2018-11-07T14:20:22.020Z,15.70
2018-11-07T14:22:50.930Z,15.40
2018-11-07T14:25:19.927Z,15.20
2018-11-07T14:27:48.993Z,15.00
2018-11-07T14:30:19.253Z,15.00
2018-11-07T14:32:50.827Z,14.70
2018-11-07T14:35:19.802Z,14.40
2018-11-07T14:37:48.906Z,14.30
2018-11-07T14:40:17.963Z,14.20
2018-11-07T14:42:46.882Z,14.20
2018-11-07T14:45:16.053Z,14.00
2018-11-07T14:47:45.237Z,14.00
2018-11-07T14:50:14.339Z,13.90
2018-11-07T14:52:43.318Z,13.60
2018-11-07T14:55:12.749Z,13.40
2018-11-07T14:57:41.906Z,13.30
2018-11-07T15:00:12.206Z,13.30
2018-11-07T15:02:41.927Z,13.30
2018-11-07T15:05:12.187Z,13.20
2018-11-07T15:07:41.908Z,13.00
2018-11-07T15:10:11.919Z,12.80
2018-11-07T15:12:40.992Z,12.60
2018-11-07T15:15:11.979Z,12.40
2018-11-07T15:17:40.953Z,12.30
2018-11-07T15:20:11.168Z,12.20
2018-11-07T15:22:40.251Z,12.10
2018-11-07T15:25:10.465Z,12.00
2018-11-07T15:27:39.802Z,12.00
2018-11-07T15:30:10.446Z,11.90
2018-11-07T15:32:39.955Z,11.70
2018-11-07T15:35:09.350Z,11.50
2018-11-07T15:37:38.819Z,11.50
2018-11-07T15:40:10.942Z,11.40
2018-11-07T15:42:40.122Z,11.40
2018-11-07T15:45:10.723Z,11.30
2018-11-07T15:47:39.866Z,11.20
2018-11-07T15:50:14.162Z,11.20
2018-11-07T15:52:43.091Z,11.00
2018-11-07T15:55:12.357Z,11.00
2018-11-07T15:57:41.299Z,11.00
2018-11-07T16:00:12.556Z,10.80
2018-11-07T16:02:41.662Z,10.80
2018-11-07T16:05:11.974Z,10.90
2018-11-07T16:07:40.911Z,10.90
2018-11-07T16:10:11.370Z,10.80
2018-11-07T16:12:40.875Z,10.90
2018-11-07T16:15:11.712Z,10.90
2018-11-07T16:17:41.111Z,10.90
2018-11-07T16:20:11.962Z,10.80
2018-11-07T16:22:41.861Z,10.80
2018-11-07T16:25:10.739Z,10.70
2018-11-07T16:27:40.690Z,10.70
2018-11-07T16:30:13.010Z,10.70
2018-11-07T16:32:42.719Z,10.60
2018-11-07T16:35:13.933Z,10.50
2018-11-07T16:37:43.760Z,10.40
2018-11-07T16:40:14.340Z,10.50
2018-11-07T16:42:43.905Z,10.40
2018-11-07T16:45:14.086Z,10.20
2018-11-07T16:47:44.354Z,10.20
2018-11-07T16:50:14.873Z,10.00
2018-11-07T16:52:43.936Z,9.90
2018-11-07T16:55:12.822Z,9.80
2018-11-07T16:57:41.909Z,9.70
2018-11-07T17:00:16.450Z,9.60
2018-11-07T17:02:45.790Z,9.60
2018-11-07T17:05:15.195Z,9.60
2018-11-07T17:07:44.306Z,9.60
2018-11-07T17:10:13.867Z,9.60
2018-11-07T17:12:42.954Z,9.60
2018-11-07T17:15:12.083Z,9.40
2018-11-07T17:17:42.070Z,9.40
2018-11-07T17:20:12.414Z,9.40
2018-11-07T17:22:41.614Z,9.40
2018-11-07T17:25:14.503Z,9.40
2018-11-07T17:27:43.720Z,9.40
2018-11-07T17:30:13.626Z,9.30
2018-11-07T17:32:42.752Z,9.20
2018-11-07T17:35:13.208Z,9.30
2018-11-07T17:37:42.696Z,9.20
2018-11-07T17:40:14.074Z,9.10
2018-11-07T17:42:43.090Z,9.00
2018-11-07T17:45:14.022Z,8.90
2018-11-07T17:47:43.604Z,9.00
2018-11-07T17:50:14.504Z,9.00
2018-11-07T17:52:44.015Z,9.10
2018-11-07T17:55:14.268Z,9.10
2018-11-07T17:57:43.190Z,9.10
2018-11-07T18:00:20.409Z,9.20
2018-11-07T18:02:49.873Z,9.10
2018-11-07T18:05:19.122Z,9.00
2018-11-07T18:07:48.271Z,9.00
2018-11-07T18:10:18.282Z,9.00
2018-11-07T18:12:48.065Z,8.90
2018-11-07T18:15:18.978Z,8.90
2018-11-07T18:17:50.266Z,8.90
2018-11-07T18:20:20.873Z,8.80
2018-11-07T18:22:49.887Z,8.80
2018-11-07T18:25:18.862Z,8.90
2018-11-07T18:27:48.066Z,8.90
2018-11-07T18:30:17.754Z,8.90
2018-11-07T18:32:47.483Z,8.80
2018-11-07T18:35:17.894Z,8.70
2018-11-07T18:37:47.225Z,8.60
2018-11-07T18:40:18.910Z,8.60
2018-11-07T18:42:48.634Z,8.50
2018-11-07T18:45:17.599Z,8.50
2018-11-07T18:47:47.129Z,8.50
2018-11-07T18:50:17.709Z,8.60
2018-11-07T18:52:46.490Z,8.60
2018-11-07T18:55:16.446Z,8.50
2018-11-07T18:57:47.401Z,8.40
2018-11-07T19:00:17.814Z,8.30
2018-11-07T19:02:47.312Z,8.30
2018-11-07T19:05:16.320Z,8.30
2018-11-07T19:07:45.309Z,8.30
2018-11-07T19:10:17.139Z,8.30
2018-11-07T19:12:46.978Z,8.30
2018-11-07T19:15:16.449Z,8.30
2018-11-07T19:17:46.267Z,8.20
2018-11-07T19:20:15.992Z,8.10
2018-11-07T19:22:44.970Z,8.10
2018-11-07T19:25:15.517Z,8.00
2018-11-07T19:27:44.459Z,7.90
2018-11-07T19:30:16.130Z,7.80
2018-11-07T19:32:46.149Z,7.80
2018-11-07T19:35:15.871Z,7.80
2018-11-07T19:37:46.018Z,7.70
2018-11-07T19:40:16.619Z,7.70
2018-11-07T19:42:45.510Z,7.70
2018-11-07T19:45:15.931Z,7.80
2018-11-07T19:47:44.851Z,7.80
2018-11-07T19:50:15.129Z,7.80
2018-11-07T19:52:44.482Z,7.80
2018-11-07T19:55:15.436Z,7.70
2018-11-07T19:57:47.033Z,7.70
2018-11-07T20:00:16.898Z,7.70
2018-11-07T20:02:46.508Z,7.70
2018-11-07T20:05:15.520Z,7.70
2018-11-07T20:07:44.534Z,7.70
2018-11-07T20:10:15.201Z,7.60
2018-11-07T20:12:44.435Z,7.60
2018-11-07T20:15:14.527Z,7.50
2018-11-07T20:17:43.444Z,7.60
2018-11-07T20:20:12.843Z,7.50
2018-11-07T20:22:41.720Z,7.50
2018-11-07T20:25:11.798Z,7.60
2018-11-07T20:27:40.991Z,7.50
2018-11-07T20:30:11.771Z,7.40
2018-11-07T20:32:40.763Z,7.40
2018-11-07T20:35:12.146Z,7.30
2018-11-07T20:37:41.055Z,7.20
2018-11-07T20:40:12.406Z,7.20
2018-11-07T20:42:41.375Z,7.20
2018-11-07T20:45:11.342Z,7.00
2018-11-07T20:47:40.283Z,7.00
2018-11-07T20:50:11.674Z,6.90
2018-11-07T20:52:41.079Z,6.90
2018-11-07T20:55:10.807Z,7.00
2018-11-07T20:57:39.684Z,7.00
2018-11-07T21:00:12.578Z,7.00
2018-11-07T21:02:42.221Z,6.90
2018-11-07T21:05:11.367Z,6.80
2018-11-07T21:07:40.693Z,6.70
2018-11-07T21:10:13.252Z,6.70
2018-11-07T21:12:42.549Z,6.70
2018-11-07T21:15:12.621Z,6.70
2018-11-07T21:17:42.338Z,6.70
2018-11-07T21:20:11.269Z,6.70
2018-11-07T21:22:40.710Z,6.60
2018-11-07T21:25:09.742Z,6.50
2018-11-07T21:27:38.839Z,6.40
2018-11-07T21:30:10.222Z,6.40
2018-11-07T21:32:39.398Z,6.50
2018-11-07T21:35:08.541Z,6.40
2018-11-07T21:37:37.571Z,6.30
2018-11-07T21:40:11.806Z,6.20
2018-11-07T21:42:40.779Z,6.20
2018-11-07T21:45:11.313Z,6.20
2018-11-07T21:47:40.837Z,6.10
2018-11-07T21:50:11.280Z,6.10
2018-11-07T21:52:40.378Z,6.10
2018-11-07T21:55:09.334Z,6.10
2018-11-07T21:57:38.548Z,6.10
2018-11-07T22:00:10.558Z,6.10
2018-11-07T22:02:39.540Z,6.20
2018-11-07T22:05:08.994Z,6.20
2018-11-07T22:07:38.118Z,6.30
2018-11-07T22:10:07.838Z,6.10
2018-11-07T22:12:36.734Z,5.90
2018-11-07T22:15:06.402Z,5.80
2018-11-07T22:17:35.350Z,5.80
2018-11-07T22:20:06.501Z,5.70
2018-11-07T22:22:35.451Z,5.80
2018-11-07T22:25:04.480Z,5.60
2018-11-07T22:27:33.387Z,5.50
2018-11-07T22:30:02.346Z,5.60
2018-11-07T22:32:31.299Z,5.60
2018-11-07T22:35:00.267Z,5.60
2018-11-07T22:37:29.166Z,5.50
2018-11-07T22:39:58.099Z,5.40
2018-11-07T22:42:27.043Z,5.40
2018-11-07T22:44:56.125Z,5.40
2018-11-07T22:47:25.247Z,5.40
2018-11-07T22:49:54.423Z,5.40
2018-11-07T22:52:23.386Z,5.50
2018-11-07T22:54:52.321Z,5.50
2018-11-07T22:57:22.400Z,5.50
2018-11-07T22:59:51.306Z,5.60
2018-11-07T23:02:20.218Z,5.70
2018-11-07T23:04:49.124Z,5.80
2018-11-07T23:07:18.023Z,5.80
2018-11-07T23:09:47.100Z,5.80
2018-11-07T23:12:16.019Z,5.80
2018-11-07T23:14:44.964Z,5.80
2018-11-07T23:17:13.907Z,5.80
2018-11-07T23:19:42.894Z,5.80
2018-11-07T23:22:11.795Z,5.80
2018-11-07T23:24:40.707Z,5.80
2018-11-07T23:27:09.633Z,5.80
2018-11-07T23:29:38.550Z,5.80
2018-11-07T23:32:07.624Z,5.70
2018-11-07T23:34:36.531Z,5.70
2018-11-07T23:37:05.758Z,5.70
2018-11-07T23:39:34.731Z,5.90
2018-11-07T23:42:03.686Z,5.90
2018-11-07T23:44:32.664Z,5.80
2018-11-07T23:47:01.587Z,5.90
2018-11-07T23:49:30.631Z,5.90
2018-11-07T23:51:59.579Z,5.90
2018-11-07T23:54:28.500Z,5.90
2018-11-07T23:56:57.659Z,5.90
2018-11-07T23:59:26.610Z,6.00
